createdAt,value
2019-03-01T00:00:34.791Z,5.97
2019-03-01T00:03:04.352Z,5.74
2019-03-01T00:06:15.066Z,5.57
2019-03-01T00:09:31.737Z,5.61
2019-03-01T00:12:40.052Z,5.42
2019-03-01T00:15:48.134Z,5.43
2019-03-01T00:18:51.536Z,5.35
2019-03-01T00:22:23.064Z,5.41
2019-03-01T00:25:32.210Z,5.50
2019-03-01T00:28:30.334Z,5.62
2019-03-01T00:31:43.364Z,5.60
2019-03-01T00:34:50.845Z,5.55
2019-03-01T00:38:16.408Z,5.68
2019-03-01T00:41:06.116Z,5.36
2019-03-01T00:44:22.333Z,5.31
2019-03-01T00:46:51.848Z,5.24
2019-03-01T00:49:21.340Z,5.15
2019-03-01T00:51:50.976Z,5.43
2019-03-01T00:54:20.420Z,5.49
2019-03-01T00:56:49.832Z,5.44
2019-03-01T00:59:19.289Z,5.49
2019-03-01T01:01:48.708Z,5.55
2019-03-01T01:04:18.090Z,5.62
2019-03-01T01:06:47.530Z,5.62
2019-03-01T01:09:17.053Z,5.61
2019-03-01T01:11:46.488Z,5.63
2019-03-01T01:14:15.937Z,5.53
2019-03-01T01:16:45.327Z,5.48
2019-03-01T01:19:14.839Z,5.32
2019-03-01T01:21:44.343Z,5.34
2019-03-01T01:24:13.827Z,5.42
2019-03-01T01:26:43.230Z,5.27
2019-03-01T01:29:12.613Z,5.30
2019-03-01T01:31:42.103Z,5.41
2019-03-01T01:34:11.540Z,5.42
2019-03-01T01:36:40.999Z,5.29
2019-03-01T01:39:10.971Z,5.42
2019-03-01T01:41:40.353Z,5.39
2019-03-01T01:44:09.784Z,5.36
2019-03-01T01:46:39.246Z,5.35
2019-03-01T01:49:08.769Z,5.42
2019-03-01T01:51:38.176Z,5.35
2019-03-01T01:54:07.616Z,5.29
2019-03-01T01:56:37.029Z,5.36
2019-03-01T01:59:06.472Z,5.40
2019-03-01T02:01:35.892Z,5.40
2019-03-01T02:04:05.822Z,5.43
2019-03-01T02:06:35.354Z,5.50
2019-03-01T02:09:14.058Z,5.52
2019-03-01T02:11:43.444Z,5.52
2019-03-01T02:14:12.855Z,5.50
2019-03-01T02:16:42.214Z,5.45
2019-03-01T02:19:11.633Z,5.66
2019-03-01T02:21:41.023Z,5.73
2019-03-01T02:24:10.379Z,5.79
2019-03-01T02:26:39.808Z,5.82
2019-03-01T02:29:09.241Z,5.91
2019-03-01T02:31:40.445Z,5.89
2019-03-01T02:34:09.866Z,6.04
2019-03-01T02:36:39.302Z,6.05
2019-03-01T02:39:09.036Z,6.03
2019-03-01T02:41:38.425Z,6.13
2019-03-01T02:44:07.883Z,6.12
2019-03-01T02:46:37.242Z,6.21
2019-03-01T02:49:06.771Z,6.27
2019-03-01T02:51:36.136Z,6.25
2019-03-01T02:54:05.678Z,6.03
2019-03-01T02:56:35.975Z,6.10
2019-03-01T02:59:05.391Z,6.10
2019-03-01T03:01:34.737Z,6.11
2019-03-01T03:04:04.169Z,6.15
2019-03-01T03:07:01.605Z,6.12
2019-03-01T03:09:30.971Z,6.05
2019-03-01T03:12:00.372Z,6.00
2019-03-01T03:14:29.789Z,5.93
2019-03-01T03:16:59.245Z,5.83
2019-03-01T03:19:28.636Z,5.81
2019-03-01T03:21:58.059Z,5.74
2019-03-01T03:24:27.478Z,5.75
2019-03-01T03:26:56.889Z,5.81
2019-03-01T03:29:26.314Z,5.84
2019-03-01T03:31:55.715Z,5.85
2019-03-01T03:34:25.251Z,5.84
2019-03-01T03:36:54.647Z,5.94
2019-03-01T03:39:24.029Z,6.01
2019-03-01T03:41:53.439Z,6.04
2019-03-01T03:44:22.790Z,6.07
2019-03-01T03:46:52.214Z,6.02
2019-03-01T03:49:21.609Z,5.88
2019-03-01T03:51:50.998Z,5.92
2019-03-01T03:54:20.375Z,5.83
2019-03-01T03:56:49.851Z,5.79
2019-03-01T03:59:19.336Z,5.82
2019-03-01T04:01:48.755Z,5.89
2019-03-01T04:04:18.277Z,5.86
2019-03-01T04:06:47.653Z,5.86
2019-03-01T04:09:17.269Z,5.78
2019-03-01T04:11:46.738Z,5.70
2019-03-01T04:14:16.126Z,5.54
2019-03-01T04:16:45.551Z,5.48
2019-03-01T04:19:14.952Z,5.31
2019-03-01T04:21:44.318Z,5.33
2019-03-01T04:24:13.779Z,5.35
2019-03-01T04:26:43.194Z,5.35
2019-03-01T04:29:12.643Z,5.33
2019-03-01T04:31:42.033Z,5.37
2019-03-01T04:34:11.506Z,5.32
2019-03-01T04:36:41.943Z,5.37
2019-03-01T04:39:11.356Z,5.35
2019-03-01T04:41:40.768Z,5.41
2019-03-01T04:44:10.228Z,5.48
2019-03-01T04:46:39.649Z,5.58
2019-03-01T04:49:09.068Z,5.64
2019-03-01T04:51:40.336Z,5.68
2019-03-01T04:54:09.587Z,5.62
2019-03-01T04:56:39.028Z,5.64
2019-03-01T04:59:08.472Z,5.68
2019-03-01T05:01:37.859Z,5.68
2019-03-01T05:04:07.300Z,5.74
2019-03-01T05:06:36.690Z,5.81
2019-03-01T05:09:07.772Z,5.91
2019-03-01T05:11:37.263Z,6.03
2019-03-01T05:14:06.747Z,6.08
2019-03-01T05:16:36.184Z,6.12
2019-03-01T05:19:05.622Z,6.21
2019-03-01T05:21:35.022Z,6.34
2019-03-01T05:24:04.577Z,6.41
2019-03-01T05:26:34.102Z,6.44
2019-03-01T05:29:03.517Z,6.44
2019-03-01T05:31:32.903Z,6.53
2019-03-01T05:34:02.352Z,6.70
2019-03-01T05:36:31.814Z,6.93
2019-03-01T05:39:01.576Z,7.16
2019-03-01T05:41:31.015Z,7.26
2019-03-01T05:44:00.573Z,7.58
2019-03-01T05:46:30.018Z,7.74
2019-03-01T05:48:59.455Z,7.94
2019-03-01T05:51:28.844Z,8.14
2019-03-01T05:53:58.272Z,8.25
2019-03-01T05:56:27.672Z,8.26
2019-03-01T05:59:10.854Z,8.25
2019-03-01T06:02:27.575Z,8.21
2019-03-01T06:05:00.449Z,8.23
2019-03-01T06:08:16.651Z,8.28
2019-03-01T06:10:52.342Z,8.43
2019-03-01T06:13:55.659Z,8.46
2019-03-01T06:16:56.923Z,8.52
2019-03-01T06:20:07.208Z,8.56
2019-03-01T06:23:23.932Z,8.64
2019-03-01T06:26:33.112Z,8.74
2019-03-01T06:29:32.273Z,8.83
2019-03-01T06:32:35.010Z,9.01
2019-03-01T06:35:38.350Z,9.18
2019-03-01T06:39:03.076Z,9.27
2019-03-01T06:41:59.851Z,9.31
2019-03-01T06:45:07.506Z,9.40
2019-03-01T06:47:48.567Z,9.49
2019-03-01T06:50:44.517Z,9.60
2019-03-01T06:53:13.919Z,9.68
2019-03-01T06:56:00.654Z,9.76
2019-03-01T06:58:35.552Z,9.86
2019-03-01T07:01:14.366Z,9.94
2019-03-01T07:03:45.578Z,10.02
2019-03-01T07:06:15.052Z,10.10
2019-03-01T07:08:44.541Z,10.31
2019-03-01T07:11:14.043Z,10.50
2019-03-01T07:13:43.465Z,10.62
2019-03-01T07:16:12.856Z,10.70
2019-03-01T07:18:42.278Z,10.79
2019-03-01T07:21:11.728Z,10.89
2019-03-01T07:23:41.206Z,11.04
2019-03-01T07:26:10.728Z,11.06
2019-03-01T07:28:40.159Z,11.13
2019-03-01T07:31:09.627Z,11.18
2019-03-01T07:33:39.046Z,11.21
2019-03-01T07:36:08.471Z,11.20
2019-03-01T07:38:37.923Z,11.32
2019-03-01T07:41:07.359Z,11.36
2019-03-01T07:43:36.759Z,11.38
2019-03-01T07:46:06.361Z,11.50
2019-03-01T07:48:35.748Z,11.69
2019-03-01T07:51:05.175Z,11.77
2019-03-01T07:53:36.089Z,11.83
2019-03-01T07:56:05.783Z,11.86
2019-03-01T07:58:35.278Z,11.73
2019-03-01T08:01:05.196Z,11.71
2019-03-01T08:03:34.660Z,11.80
2019-03-01T08:06:04.196Z,11.86
2019-03-01T08:08:34.931Z,11.91
2019-03-01T08:11:04.989Z,11.86
2019-03-01T08:13:34.450Z,11.77
2019-03-01T08:16:03.947Z,11.72
2019-03-01T08:18:33.361Z,11.62
2019-03-01T08:21:06.079Z,11.60
2019-03-01T08:23:35.139Z,11.67
2019-03-01T08:26:05.401Z,11.75
2019-03-01T08:28:34.852Z,11.74
2019-03-01T08:31:04.638Z,11.87
2019-03-01T08:33:34.183Z,11.93
2019-03-01T08:36:05.814Z,11.81
2019-03-01T08:38:34.929Z,11.73
2019-03-01T08:41:04.385Z,11.81
2019-03-01T08:43:35.712Z,12.01
2019-03-01T08:46:05.546Z,11.87
2019-03-01T08:48:36.165Z,11.83
2019-03-01T08:51:05.663Z,11.89
2019-03-01T08:53:35.218Z,11.90
2019-03-01T08:56:04.677Z,11.87
2019-03-01T08:58:34.183Z,11.84
2019-03-01T09:01:08.382Z,11.86
2019-03-01T09:03:43.217Z,11.83
2019-03-01T09:06:12.701Z,12.03
2019-03-01T09:08:42.921Z,11.97
2019-03-01T09:11:13.637Z,11.92
2019-03-01T09:13:43.161Z,12.06
2019-03-01T09:16:12.638Z,12.13
2019-03-01T09:18:42.390Z,12.18
2019-03-01T09:21:12.925Z,12.21
2019-03-01T09:23:43.158Z,12.21
2019-03-01T09:26:12.672Z,12.17
2019-03-01T09:28:42.120Z,12.38
2019-03-01T09:31:11.730Z,12.59
2019-03-01T09:33:41.215Z,12.70
2019-03-01T09:36:18.051Z,12.61
2019-03-01T09:38:45.989Z,12.51
2019-03-01T09:41:15.512Z,12.49
2019-03-01T09:43:44.958Z,12.47
2019-03-01T09:46:14.433Z,12.52
2019-03-01T09:48:45.593Z,12.56
2019-03-01T09:51:15.959Z,12.41
2019-03-01T09:53:45.559Z,12.50
2019-03-01T09:56:14.972Z,12.72
2019-03-01T09:58:44.458Z,12.91
2019-03-01T10:01:16.194Z,13.11
2019-03-01T10:03:46.147Z,13.55
2019-03-01T10:06:15.632Z,13.79
2019-03-01T10:08:45.198Z,13.79
2019-03-01T10:11:14.725Z,14.11
2019-03-01T10:13:44.214Z,14.28
2019-03-01T10:16:13.795Z,14.57
2019-03-01T10:18:43.205Z,14.82
2019-03-01T10:21:12.573Z,15.16
2019-03-01T10:23:41.987Z,15.06
2019-03-01T10:26:11.397Z,15.10
2019-03-01T10:28:40.805Z,14.76
2019-03-01T10:31:10.245Z,14.74
2019-03-01T10:33:39.722Z,14.76
2019-03-01T10:36:09.290Z,14.51
2019-03-01T10:38:38.662Z,14.50
2019-03-01T10:41:08.097Z,14.34
2019-03-01T10:43:37.519Z,14.42
2019-03-01T10:46:06.903Z,14.56
2019-03-01T10:48:36.326Z,15.17
2019-03-01T10:51:05.701Z,15.38
2019-03-01T10:53:35.085Z,15.34
2019-03-01T10:56:04.537Z,15.44
2019-03-01T10:58:33.981Z,15.44
2019-03-01T11:01:04.043Z,15.44
2019-03-01T11:03:33.426Z,15.47
2019-03-01T11:06:02.811Z,15.65
2019-03-01T11:08:32.251Z,15.79
2019-03-01T11:11:01.634Z,16.06
2019-03-01T11:13:31.056Z,16.15
2019-03-01T11:16:00.429Z,16.25
2019-03-01T11:18:29.813Z,15.84
2019-03-01T11:20:59.193Z,15.97
2019-03-01T11:23:28.585Z,15.84
2019-03-01T11:25:57.997Z,16.13
2019-03-01T11:28:27.526Z,16.02
2019-03-01T11:30:56.935Z,16.11
2019-03-01T11:33:26.308Z,16.28
2019-03-01T11:35:55.744Z,16.28
2019-03-01T11:38:25.135Z,16.71
2019-03-01T11:40:55.899Z,16.87
2019-03-01T11:43:25.421Z,16.47
2019-03-01T11:45:54.790Z,16.46
2019-03-01T11:48:24.191Z,16.72
2019-03-01T11:50:53.669Z,17.07
2019-03-01T11:53:23.053Z,16.56
2019-03-01T11:55:52.496Z,16.44
2019-03-01T11:58:21.981Z,16.30
2019-03-01T12:00:52.427Z,16.76
2019-03-01T12:03:21.971Z,16.22
2019-03-01T12:05:51.372Z,16.34
2019-03-01T12:08:20.756Z,16.33
2019-03-01T12:10:50.220Z,15.98
2019-03-01T12:13:19.598Z,15.84
2019-03-01T12:15:48.979Z,15.89
2019-03-01T12:18:18.350Z,16.04
2019-03-01T12:20:47.715Z,16.58
2019-03-01T12:23:17.139Z,16.48
2019-03-01T12:25:46.861Z,16.38
2019-03-01T12:28:16.342Z,16.12
2019-03-01T12:30:45.737Z,16.13
2019-03-01T12:33:15.180Z,15.98
2019-03-01T12:35:44.721Z,16.15
2019-03-01T12:38:14.181Z,16.46
2019-03-01T12:40:43.615Z,16.94
2019-03-01T12:43:13.114Z,17.56
2019-03-01T12:45:42.455Z,17.16
2019-03-01T12:48:12.798Z,16.99
2019-03-01T12:50:42.192Z,16.61
2019-03-01T12:53:11.666Z,16.48
2019-03-01T12:55:41.057Z,16.81
2019-03-01T12:58:19.205Z,16.96
2019-03-01T13:00:41.877Z,17.76
2019-03-01T13:03:11.263Z,17.74
2019-03-01T13:05:40.672Z,17.05
2019-03-01T13:08:12.519Z,16.90
2019-03-01T13:10:41.481Z,17.08
2019-03-01T13:13:10.976Z,17.09
2019-03-01T13:15:40.364Z,17.48
2019-03-01T13:18:15.750Z,17.72
2019-03-01T13:20:41.205Z,17.31
2019-03-01T13:23:10.585Z,17.10
2019-03-01T13:25:39.968Z,17.19
2019-03-01T13:28:09.362Z,17.12
2019-03-01T13:30:38.742Z,16.70
2019-03-01T13:33:08.121Z,16.64
2019-03-01T13:35:37.552Z,16.72
2019-03-01T13:38:06.930Z,17.15
2019-03-01T13:40:36.329Z,18.00
2019-03-01T13:43:05.745Z,18.00
2019-03-01T13:45:38.158Z,17.61
2019-03-01T13:48:07.534Z,16.99
2019-03-01T13:50:38.326Z,17.11
2019-03-01T13:53:08.037Z,17.13
2019-03-01T13:55:37.435Z,17.13
2019-03-01T13:58:06.806Z,17.14
2019-03-01T14:00:36.155Z,17.28
2019-03-01T14:03:05.543Z,17.43
2019-03-01T14:05:34.918Z,17.45
2019-03-01T14:08:09.059Z,17.33
2019-03-01T14:10:38.555Z,17.46
2019-03-01T14:13:07.144Z,17.62
2019-03-01T14:15:38.514Z,17.52
2019-03-01T14:18:07.720Z,17.65
2019-03-01T14:20:37.164Z,18.41
2019-03-01T14:23:06.578Z,18.82
2019-03-01T14:25:38.566Z,18.89
2019-03-01T14:28:07.124Z,18.86
2019-03-01T14:30:36.509Z,18.66
2019-03-01T14:33:05.872Z,18.25
2019-03-01T14:35:35.253Z,18.03
2019-03-01T14:38:04.812Z,17.88
2019-03-01T14:40:34.183Z,18.15
2019-03-01T14:43:03.835Z,17.78
2019-03-01T14:45:33.191Z,17.27
2019-03-01T14:48:05.046Z,16.76
2019-03-01T14:50:34.775Z,16.67
2019-03-01T14:53:04.245Z,16.95
2019-03-01T14:55:38.530Z,16.88
2019-03-01T14:58:15.168Z,16.79
2019-03-01T15:01:29.727Z,16.84
2019-03-01T15:03:59.096Z,17.37
2019-03-01T15:06:28.487Z,17.51
2019-03-01T15:08:57.887Z,17.78
2019-03-01T15:11:27.258Z,17.94
2019-03-01T15:13:57.157Z,17.91
2019-03-01T15:16:26.586Z,17.75
2019-03-01T15:18:55.984Z,17.78
2019-03-01T15:21:25.367Z,17.40
2019-03-01T15:23:56.269Z,17.29
2019-03-01T15:26:26.592Z,17.15
2019-03-01T15:28:58.901Z,17.06
2019-03-01T15:31:28.488Z,16.91
2019-03-01T15:33:57.864Z,16.80
2019-03-01T15:36:27.214Z,16.46
2019-03-01T15:38:56.572Z,16.12
2019-03-01T15:41:26.751Z,16.04
2019-03-01T15:43:56.133Z,16.04
2019-03-01T15:46:25.481Z,16.11
2019-03-01T15:48:54.847Z,16.01
2019-03-01T15:51:24.208Z,15.75
2019-03-01T15:53:53.605Z,15.57
2019-03-01T15:56:23.015Z,15.51
2019-03-01T15:58:52.418Z,15.40
2019-03-01T16:01:21.818Z,15.18
2019-03-01T16:03:54.096Z,14.79
2019-03-01T16:06:22.441Z,14.79
2019-03-01T16:08:51.769Z,14.82
2019-03-01T16:11:21.155Z,14.61
2019-03-01T16:13:50.631Z,14.37
2019-03-01T16:16:20.052Z,14.25
2019-03-01T16:18:49.502Z,14.08
2019-03-01T16:21:18.931Z,13.88
2019-03-01T16:23:48.370Z,13.73
2019-03-01T16:26:17.779Z,13.62
2019-03-01T16:28:47.365Z,13.45
2019-03-01T16:31:16.776Z,13.29
2019-03-01T16:33:46.130Z,13.15
2019-03-01T16:36:26.473Z,13.07
2019-03-01T16:38:56.366Z,12.98
2019-03-01T16:41:25.702Z,12.85
2019-03-01T16:43:55.109Z,12.82
2019-03-01T16:46:24.495Z,12.74
2019-03-01T16:48:53.884Z,12.73
2019-03-01T16:51:23.238Z,12.75
2019-03-01T16:53:52.632Z,12.65
2019-03-01T16:56:22.065Z,12.58
2019-03-01T16:58:51.496Z,12.43
2019-03-01T17:01:20.880Z,12.34
2019-03-01T17:03:52.732Z,12.25
2019-03-01T17:06:21.417Z,12.18
2019-03-01T17:08:50.815Z,12.20
2019-03-01T17:11:20.181Z,12.12
2019-03-01T17:13:49.589Z,12.14
2019-03-01T17:16:20.481Z,12.17
2019-03-01T17:18:50.101Z,12.11
2019-03-01T17:21:19.518Z,12.09
2019-03-01T17:23:48.898Z,12.13
2019-03-01T17:26:18.494Z,12.16
2019-03-01T17:28:49.813Z,12.18
2019-03-01T17:31:19.469Z,12.16
2019-03-01T17:33:50.029Z,12.20
2019-03-01T17:36:19.533Z,12.21
2019-03-01T17:38:48.911Z,12.15
2019-03-01T17:41:18.266Z,12.10
2019-03-01T17:43:47.679Z,12.05
2019-03-01T17:46:17.106Z,12.01
2019-03-01T17:48:46.530Z,11.98
2019-03-01T17:51:18.260Z,11.90
2019-03-01T17:53:47.258Z,11.83
2019-03-01T17:56:18.584Z,11.75
2019-03-01T17:58:48.001Z,11.67
2019-03-01T18:01:17.384Z,11.59
2019-03-01T18:03:46.758Z,11.54
2019-03-01T18:06:16.798Z,11.45
2019-03-01T18:08:47.377Z,11.42
2019-03-01T18:11:16.738Z,11.36
2019-03-01T18:13:46.138Z,11.35
2019-03-01T18:16:15.608Z,11.30
2019-03-01T18:18:48.757Z,11.26
2019-03-01T18:21:16.074Z,11.20
2019-03-01T18:23:45.458Z,11.12
2019-03-01T18:26:14.814Z,11.07
2019-03-01T18:28:44.243Z,11.05
2019-03-01T18:31:13.600Z,10.97
2019-03-01T18:33:43.002Z,10.97
2019-03-01T18:36:12.384Z,10.89
2019-03-01T18:38:41.761Z,10.86
2019-03-01T18:41:11.549Z,10.89
2019-03-01T18:43:40.940Z,10.88
2019-03-01T18:46:10.410Z,10.81
2019-03-01T18:48:40.547Z,10.89
2019-03-01T18:51:10.934Z,10.82
2019-03-01T18:53:40.335Z,10.81
2019-03-01T18:56:09.831Z,10.71
2019-03-01T18:58:39.199Z,10.75
2019-03-01T19:01:11.695Z,10.72
2019-03-01T19:03:41.524Z,10.69
2019-03-01T19:06:12.825Z,10.60
2019-03-01T19:08:42.041Z,10.56
2019-03-01T19:11:11.469Z,10.64
2019-03-01T19:13:40.835Z,10.54
2019-03-01T19:16:10.576Z,10.37
2019-03-01T19:18:42.138Z,10.35
2019-03-01T19:21:13.888Z,10.36
2019-03-01T19:23:42.153Z,10.31
2019-03-01T19:26:11.525Z,10.29
2019-03-01T19:28:40.944Z,10.23
2019-03-01T19:31:10.301Z,10.31
2019-03-01T19:33:41.635Z,10.27
2019-03-01T19:36:10.868Z,10.28
2019-03-01T19:38:40.245Z,10.35
2019-03-01T19:41:09.727Z,10.31
2019-03-01T19:43:41.666Z,10.31
2019-03-01T19:46:12.582Z,10.17
2019-03-01T19:48:41.389Z,10.27
2019-03-01T19:51:10.747Z,10.15
2019-03-01T19:53:40.116Z,10.23
2019-03-01T19:56:09.489Z,10.15
2019-03-01T19:58:38.954Z,10.12
2019-03-01T20:01:08.354Z,10.07
2019-03-01T20:03:37.687Z,10.09
2019-03-01T20:06:07.869Z,10.03
2019-03-01T20:08:38.258Z,10.08
2019-03-01T20:11:07.605Z,9.98
2019-03-01T20:13:36.967Z,9.97
2019-03-01T20:16:06.394Z,10.04
2019-03-01T20:18:35.766Z,10.06
2019-03-01T20:21:05.869Z,9.91
2019-03-01T20:23:36.320Z,10.04
2019-03-01T20:26:05.693Z,10.09
2019-03-01T20:28:35.070Z,10.03
2019-03-01T20:31:04.930Z,10.04
2019-03-01T20:33:35.251Z,10.20
2019-03-01T20:36:05.193Z,10.16
2019-03-01T20:38:37.017Z,10.11
2019-03-01T20:41:05.683Z,10.05
2019-03-01T20:46:03.949Z,10.19
2019-03-01T20:48:33.578Z,10.10
2019-03-01T20:51:02.968Z,10.06
2019-03-01T20:53:32.421Z,10.10
2019-03-01T20:56:01.820Z,10.09
2019-03-01T20:58:31.279Z,10.15
2019-03-01T21:01:02.012Z,10.15
2019-03-01T21:03:31.695Z,10.14
2019-03-01T21:06:01.766Z,10.11
2019-03-01T21:08:32.161Z,10.12
2019-03-01T21:11:01.660Z,10.14
2019-03-01T21:13:31.013Z,10.09
2019-03-01T21:16:00.405Z,9.98
2019-03-01T21:18:30.824Z,9.89
2019-03-01T21:21:00.864Z,9.73
2019-03-01T21:23:30.277Z,9.62
2019-03-01T21:25:59.663Z,9.55
2019-03-01T21:28:29.209Z,9.43
2019-03-01T21:30:59.002Z,9.46
2019-03-01T21:33:29.317Z,9.38
2019-03-01T21:35:58.679Z,9.24
2019-03-01T21:38:28.054Z,9.15
2019-03-01T21:40:57.455Z,9.05
2019-03-01T21:43:26.827Z,9.02
2019-03-01T21:45:58.968Z,9.02
2019-03-01T21:48:27.286Z,8.93
2019-03-01T21:50:56.628Z,8.92
2019-03-01T21:53:26.169Z,8.92
2019-03-01T21:55:55.530Z,8.90
2019-03-01T21:58:24.943Z,8.88
2019-03-01T22:00:54.370Z,8.98
2019-03-01T22:03:24.843Z,8.95
2019-03-01T22:05:54.850Z,8.88
2019-03-01T22:08:24.246Z,8.86
2019-03-01T22:10:53.691Z,8.98
2019-03-01T22:13:23.027Z,9.12
2019-03-01T22:15:52.390Z,9.19
2019-03-01T22:18:23.613Z,9.23
2019-03-01T22:20:52.874Z,9.08
2019-03-01T22:23:22.237Z,9.14
2019-03-01T22:25:51.660Z,9.15
2019-03-01T22:28:21.338Z,8.96
2019-03-01T22:30:50.839Z,9.05
2019-03-01T22:33:20.777Z,9.11
2019-03-01T22:35:51.387Z,9.03
2019-03-01T22:38:20.749Z,8.96
2019-03-01T22:40:50.174Z,8.96
2019-03-01T22:43:22.546Z,9.10
2019-03-01T22:45:50.678Z,9.13
2019-03-01T22:48:20.051Z,9.16
2019-03-01T22:50:49.434Z,9.20
2019-03-01T22:53:18.851Z,9.24
2019-03-01T22:55:48.238Z,9.19
2019-03-01T22:58:17.666Z,9.11
2019-03-01T23:01:17.355Z,8.98
2019-03-01T23:03:54.908Z,9.07
2019-03-01T23:06:22.920Z,9.02
2019-03-01T23:08:52.307Z,8.97
2019-03-01T23:11:21.673Z,8.92
2019-03-01T23:13:52.788Z,8.82
2019-03-01T23:16:22.098Z,8.82
2019-03-01T23:18:56.594Z,8.89
2019-03-01T23:21:22.529Z,8.89
2019-03-01T23:23:51.894Z,8.79
2019-03-01T23:26:21.540Z,8.90
2019-03-01T23:28:51.806Z,8.94
2019-03-01T23:31:21.186Z,8.99
2019-03-01T23:33:50.559Z,8.97
2019-03-01T23:36:20.256Z,8.95
2019-03-01T23:38:50.206Z,9.01
2019-03-01T23:41:20.607Z,8.99
2019-03-01T23:43:49.979Z,8.93
2019-03-01T23:46:19.366Z,8.91
2019-03-01T23:48:48.993Z,8.87
2019-03-01T23:51:19.108Z,8.88
2019-03-01T23:53:48.482Z,8.69
2019-03-01T23:56:17.824Z,8.46
2019-03-01T23:58:47.988Z,8.42
